createdAt,value
2022-10-31T00:01:54.174Z,94615.03
2022-10-31T00:04:21.131Z,94618.50
2022-10-31T00:06:54.382Z,94616.25
2022-10-31T00:12:15.568Z,94612.75
2022-10-31T00:14:45.878Z,94612.06
2022-10-31T00:17:12.534Z,94616.91
2022-10-31T00:19:39.112Z,94609.25
2022-10-31T00:22:05.699Z,94613.81
2022-10-31T00:24:39.832Z,94619.25
2022-10-31T00:27:06.429Z,94621.72
2022-10-31T00:29:43.473Z,94610.50
2022-10-31T00:32:10.055Z,94602.28
2022-10-31T00:37:26.886Z,94604.06
2022-10-31T00:39:53.512Z,94599.81
2022-10-31T00:42:20.102Z,94604.19
2022-10-31T00:44:46.788Z,94592.66
2022-10-31T00:47:22.642Z,94605.19
2022-10-31T00:52:30.495Z,94608.03
2022-10-31T00:54:57.973Z,94597.41
2022-10-31T00:57:33.642Z,94599.44
2022-10-31T01:00:04.003Z,94600.69
2022-10-31T01:02:32.961Z,94598.69
2022-10-31T01:05:09.956Z,94597.28
2022-10-31T01:07:41.545Z,94598.88
2022-10-31T01:10:14.648Z,94608.41
2022-10-31T01:12:49.642Z,94607.47
2022-10-31T01:15:21.077Z,94610.69
2022-10-31T01:17:58.464Z,94615.75
2022-10-31T01:23:15.498Z,94614.59
2022-10-31T01:25:51.939Z,94614.31
2022-10-31T01:28:23.162Z,94619.25
2022-10-31T01:30:59.176Z,94609.06
2022-10-31T01:33:25.763Z,94610.81
2022-10-31T01:35:57.446Z,94613.91
2022-10-31T01:38:26.569Z,94604.34
2022-10-31T01:40:53.580Z,94608.91
2022-10-31T01:43:24.259Z,94612.00
2022-10-31T01:45:55.198Z,94614.00
2022-10-31T01:48:32.996Z,94613.75
2022-10-31T01:51:00.965Z,94616.06
2022-10-31T01:53:27.598Z,94614.06
2022-10-31T01:56:02.525Z,94622.69
2022-10-31T01:58:43.945Z,94620.44
2022-10-31T02:01:10.939Z,94627.19
2022-10-31T02:03:45.692Z,94617.28
2022-10-31T02:06:36.145Z,94616.84
2022-10-31T02:09:14.801Z,94608.31
2022-10-31T02:11:51.143Z,94615.84
2022-10-31T02:14:18.058Z,94612.81
2022-10-31T02:16:52.196Z,94603.63
2022-10-31T02:19:36.884Z,94613.56
2022-10-31T02:22:25.493Z,94607.50
2022-10-31T02:25:25.753Z,94612.53
2022-10-31T02:28:29.888Z,94616.00
2022-10-31T02:31:23.825Z,94626.84
2022-10-31T02:34:13.490Z,94626.09
2022-10-31T02:37:04.963Z,94627.25
2022-10-31T02:39:50.219Z,94628.44
2022-10-31T02:42:46.449Z,94626.06
2022-10-31T02:45:25.565Z,94631.88
2022-10-31T02:47:58.492Z,94636.44
2022-10-31T02:50:40.695Z,94641.13
2022-10-31T02:53:07.425Z,94641.66
2022-10-31T02:55:34.357Z,94634.66
2022-10-31T03:01:19.557Z,94640.28
2022-10-31T03:04:18.603Z,94648.47
2022-10-31T03:09:53.829Z,94642.69
2022-10-31T03:12:43.198Z,94646.22
2022-10-31T03:15:29.411Z,94648.44
2022-10-31T03:18:07.862Z,94644.25
2022-10-31T03:21:13.283Z,94650.72
2022-10-31T03:23:49.432Z,94640.03
2022-10-31T03:26:23.537Z,94647.84
2022-10-31T03:29:10.925Z,94649.25
2022-10-31T03:31:54.556Z,94655.75
2022-10-31T03:34:29.436Z,94653.03
2022-10-31T03:37:03.187Z,94658.34
2022-10-31T03:39:34.819Z,94661.59
2022-10-31T03:42:12.460Z,94657.16
2022-10-31T03:44:47.226Z,94659.97
2022-10-31T03:47:18.106Z,94664.69
2022-10-31T03:49:49.616Z,94664.28
2022-10-31T03:55:44.668Z,94666.19
2022-10-31T03:58:24.523Z,94660.69
2022-10-31T04:01:06.498Z,94666.56
2022-10-31T04:03:48.237Z,94671.63
2022-10-31T04:06:23.883Z,94668.19
2022-10-31T04:08:57.243Z,94673.06
2022-10-31T04:11:34.702Z,94679.44
2022-10-31T04:14:09.171Z,94671.34
2022-10-31T04:16:36.994Z,94682.25
2022-10-31T04:19:07.843Z,94679.09
2022-10-31T04:21:46.123Z,94683.56
2022-10-31T04:24:12.755Z,94679.41
2022-10-31T04:26:45.333Z,94676.47
2022-10-31T04:29:15.496Z,94681.59
2022-10-31T04:31:42.146Z,94675.91
2022-10-31T04:34:14.356Z,94685.91
2022-10-31T04:36:54.022Z,94687.16
2022-10-31T04:39:24.229Z,94684.09
2022-10-31T04:41:54.662Z,94684.53
2022-10-31T04:44:29.576Z,94690.97
2022-10-31T04:47:03.187Z,94683.38
2022-10-31T04:49:29.834Z,94681.13
2022-10-31T04:51:56.602Z,94688.09
2022-10-31T04:54:27.204Z,94685.22
2022-10-31T04:56:53.857Z,94691.72
2022-10-31T05:02:18.546Z,94702.19
2022-10-31T05:04:45.224Z,94702.59
2022-10-31T05:07:17.933Z,94703.91
2022-10-31T05:09:52.559Z,94707.91
2022-10-31T05:12:25.109Z,94715.75
2022-10-31T05:14:55.987Z,94715.59
2022-10-31T05:17:27.668Z,94718.63
2022-10-31T05:19:57.861Z,94713.56
2022-10-31T05:22:30.071Z,94720.31
2022-10-31T05:25:02.151Z,94721.13
2022-10-31T05:27:36.706Z,94718.06
2022-10-31T05:30:06.028Z,94709.25
2022-10-31T05:32:43.534Z,94714.56
2022-10-31T05:37:56.375Z,94721.75
2022-10-31T05:40:23.144Z,94734.44
2022-10-31T05:43:02.744Z,94728.09
2022-10-31T05:48:09.960Z,94736.72
2022-10-31T05:50:43.532Z,94740.38
2022-10-31T05:53:14.808Z,94737.13
2022-10-31T05:58:31.223Z,94746.19
2022-10-31T06:00:58.541Z,94743.00
2022-10-31T06:03:26.916Z,94742.38
2022-10-31T06:06:03.686Z,94752.56
2022-10-31T06:08:37.239Z,94750.25
2022-10-31T06:11:09.902Z,94753.69
2022-10-31T06:13:36.658Z,94758.97
2022-10-31T06:16:03.430Z,94751.00
2022-10-31T06:18:30.830Z,94756.72
2022-10-31T06:21:01.661Z,94757.97
2022-10-31T06:23:28.502Z,94773.72
2022-10-31T06:26:00.514Z,94769.13
2022-10-31T06:28:37.677Z,94779.53
2022-10-31T06:31:04.350Z,94779.59
2022-10-31T06:33:38.714Z,94783.00
2022-10-31T06:36:21.194Z,94785.00
2022-10-31T06:39:02.211Z,94777.75
2022-10-31T06:41:43.346Z,94780.88
2022-10-31T06:44:21.136Z,94784.13
2022-10-31T06:46:56.239Z,94791.09
2022-10-31T06:49:31.779Z,94785.25
2022-10-31T06:52:00.772Z,94789.19
2022-10-31T06:54:35.267Z,94787.25
2022-10-31T06:57:01.923Z,94781.34
2022-10-31T06:59:31.522Z,94790.53
2022-10-31T07:02:12.098Z,94789.09
2022-10-31T07:04:42.180Z,94778.28
2022-10-31T07:07:08.880Z,94792.38
2022-10-31T07:12:21.925Z,94799.88
2022-10-31T07:14:52.018Z,94799.97
2022-10-31T07:17:19.948Z,94801.03
2022-10-31T07:19:46.587Z,94790.22
2022-10-31T07:22:19.953Z,94797.19
2022-10-31T07:24:46.528Z,94792.94
2022-10-31T07:27:13.145Z,94786.50
2022-10-31T07:29:42.054Z,94777.09
2022-10-31T07:32:08.717Z,94771.72
2022-10-31T07:34:46.632Z,94765.56
2022-10-31T07:37:20.376Z,94773.56
2022-10-31T07:39:56.183Z,94773.31
2022-10-31T07:42:34.192Z,94767.97
2022-10-31T07:45:04.516Z,94769.53
2022-10-31T07:47:31.170Z,94760.84
2022-10-31T07:49:57.815Z,94763.13
2022-10-31T07:52:26.453Z,94773.53
2022-10-31T07:54:53.645Z,94773.47
2022-10-31T07:57:24.103Z,94764.19
2022-10-31T07:59:59.303Z,94767.50
2022-10-31T08:02:32.339Z,94771.94
2022-10-31T08:05:03.966Z,94757.69
2022-10-31T08:07:41.059Z,94767.72
2022-10-31T08:10:07.942Z,94778.28
2022-10-31T08:12:42.652Z,94772.31
2022-10-31T08:15:09.794Z,94769.91
2022-10-31T08:17:39.246Z,94766.50
2022-10-31T08:20:06.923Z,94770.38
2022-10-31T08:22:33.567Z,94765.41
2022-10-31T08:25:04.507Z,94766.66
2022-10-31T08:27:32.655Z,94770.88
2022-10-31T08:29:59.596Z,94774.41
2022-10-31T08:32:30.575Z,94772.50
2022-10-31T08:34:57.645Z,94777.47
2022-10-31T08:37:24.568Z,94774.81
2022-10-31T08:40:02.231Z,94771.75
2022-10-31T08:42:35.336Z,94774.81
2022-10-31T08:45:12.395Z,94772.50
2022-10-31T08:47:39.026Z,94775.66
2022-10-31T08:50:05.977Z,94767.53
2022-10-31T08:55:25.697Z,94769.53
2022-10-31T08:58:05.406Z,94767.97
2022-10-31T09:00:40.209Z,94758.31
2022-10-31T09:06:01.012Z,94779.25
2022-10-31T09:08:29.749Z,94774.66
2022-10-31T09:11:01.300Z,94771.94
2022-10-31T09:16:15.666Z,94768.88
2022-10-31T09:18:47.634Z,94768.84
2022-10-31T09:24:05.348Z,94758.03
2022-10-31T09:26:35.202Z,94770.06
2022-10-31T09:29:03.062Z,94763.84
2022-10-31T09:31:30.164Z,94759.19
2022-10-31T09:34:04.800Z,94756.88
2022-10-31T09:36:39.182Z,94756.50
2022-10-31T09:39:11.531Z,94758.81
2022-10-31T09:42:02.435Z,94755.69
2022-10-31T09:44:52.793Z,94756.84
2022-10-31T09:47:31.574Z,94753.38
2022-10-31T09:50:32.191Z,94753.38
2022-10-31T09:53:08.796Z,94749.47
2022-10-31T09:55:46.728Z,94751.81
2022-10-31T10:01:14.702Z,94749.03
2022-10-31T10:06:45.677Z,94744.75
2022-10-31T10:09:27.418Z,94738.19
2022-10-31T10:12:02.887Z,94733.13
2022-10-31T10:15:04.125Z,94733.09
2022-10-31T10:17:44.384Z,94729.13
2022-10-31T10:20:28.528Z,94729.88
2022-10-31T10:23:24.892Z,94725.66
2022-10-31T10:26:34.776Z,94729.44
2022-10-31T10:29:26.750Z,94724.00
2022-10-31T10:32:04.227Z,94720.28
2022-10-31T10:34:49.622Z,94722.63
2022-10-31T10:37:33.521Z,94712.97
2022-10-31T10:40:13.224Z,94703.28
2022-10-31T10:43:00.708Z,94701.16
2022-10-31T10:45:51.642Z,94698.06
2022-10-31T10:48:43.378Z,94694.47
2022-10-31T10:56:58.084Z,94693.38
2022-10-31T10:59:35.278Z,94693.25
2022-10-31T11:02:14.292Z,94694.28
2022-10-31T11:04:45.960Z,94687.81
2022-10-31T11:07:13.463Z,94688.94
2022-10-31T11:09:48.449Z,94694.03
2022-10-31T11:15:36.293Z,94688.19
2022-10-31T11:18:09.305Z,94687.28
2022-10-31T11:20:41.219Z,94673.88
2022-10-31T11:23:22.661Z,94676.81
2022-10-31T11:26:03.893Z,94668.03
2022-10-31T11:28:43.904Z,94666.88
2022-10-31T11:31:24.510Z,94668.84
2022-10-31T11:34:01.259Z,94667.50
2022-10-31T11:36:31.316Z,94662.69
2022-10-31T11:39:00.809Z,94655.75
2022-10-31T11:44:14.659Z,94654.72
2022-10-31T11:46:51.591Z,94654.91
2022-10-31T11:49:20.154Z,94648.53
2022-10-31T11:52:01.820Z,94648.53
2022-10-31T11:54:38.485Z,94645.47
2022-10-31T11:57:15.692Z,94646.56
2022-10-31T12:00:00.883Z,94637.94
2022-10-31T12:02:28.960Z,94640.31
2022-10-31T12:05:32.197Z,94640.22
2022-10-31T12:08:08.723Z,94637.88
2022-10-31T12:10:59.376Z,94634.47
2022-10-31T12:16:45.016Z,94634.16
2022-10-31T12:19:31.028Z,94635.03
2022-10-31T12:22:01.655Z,94643.16
2022-10-31T12:27:36.498Z,94641.03
2022-10-31T12:30:18.460Z,94631.94
2022-10-31T12:32:57.388Z,94638.44
2022-10-31T12:35:47.192Z,94639.44
2022-10-31T12:38:31.390Z,94631.41
2022-10-31T12:41:23.723Z,94630.63
2022-10-31T12:44:29.986Z,94628.38
2022-10-31T12:47:36.822Z,94632.72
2022-10-31T12:50:24.767Z,94626.78
2022-10-31T12:53:15.115Z,94630.22
2022-10-31T12:55:53.836Z,94625.16
2022-10-31T12:58:36.441Z,94632.72
2022-10-31T13:01:14.141Z,94627.16
2022-10-31T13:03:58.314Z,94629.28
2022-10-31T13:07:06.459Z,94632.63
2022-10-31T13:09:52.171Z,94626.81
2022-10-31T13:12:30.029Z,94621.03
2022-10-31T13:15:12.143Z,94629.03
2022-10-31T13:17:51.749Z,94631.75
2022-10-31T13:20:33.998Z,94625.16
2022-10-31T13:23:55.528Z,94628.38
2022-10-31T13:26:48.194Z,94625.03
2022-10-31T13:29:42.985Z,94616.25
2022-10-31T13:32:15.342Z,94619.81
2022-10-31T13:34:48.045Z,94626.38
2022-10-31T13:37:38.199Z,94627.84
2022-10-31T13:40:17.202Z,94624.81
2022-10-31T13:43:07.105Z,94626.41
2022-10-31T13:45:42.193Z,94618.53
2022-10-31T13:48:31.407Z,94621.28
2022-10-31T13:51:09.982Z,94610.38
2022-10-31T13:54:16.883Z,94626.06
2022-10-31T13:56:47.892Z,94612.41
2022-10-31T13:59:35.160Z,94613.09
2022-10-31T14:02:15.672Z,94623.47
2022-10-31T14:04:57.201Z,94614.25
2022-10-31T14:07:32.447Z,94626.66
2022-10-31T14:10:27.456Z,94629.75
2022-10-31T14:13:04.754Z,94628.88
2022-10-31T14:18:31.095Z,94630.69
2022-10-31T14:21:10.190Z,94626.91
2022-10-31T14:23:40.141Z,94635.81
2022-10-31T14:26:28.206Z,94637.88
2022-10-31T14:29:00.513Z,94628.66
2022-10-31T14:31:45.096Z,94641.13
2022-10-31T14:34:41.110Z,94635.38
2022-10-31T14:40:28.999Z,94639.81
2022-10-31T14:43:23.027Z,94637.53
2022-10-31T14:46:35.656Z,94632.63
2022-10-31T14:49:22.251Z,94636.94
2022-10-31T14:52:00.975Z,94634.22
2022-10-31T14:54:35.126Z,94632.09
2022-10-31T14:57:20.251Z,94640.63
2022-10-31T15:00:00.864Z,94634.91
2022-10-31T15:02:55.839Z,94636.97
2022-10-31T15:05:28.796Z,94640.94
2022-10-31T15:08:03.062Z,94639.03
2022-10-31T15:10:34.094Z,94637.47
2022-10-31T15:13:37.958Z,94637.59
2022-10-31T15:16:20.770Z,94638.38
2022-10-31T15:19:15.858Z,94641.09
2022-10-31T15:21:51.625Z,94647.34
2022-10-31T15:24:29.648Z,94651.28
2022-10-31T15:27:02.320Z,94658.69
2022-10-31T15:29:37.806Z,94662.63
2022-10-31T15:32:35.362Z,94668.88
2022-10-31T15:35:05.316Z,94661.13
2022-10-31T15:37:36.100Z,94668.06
2022-10-31T15:40:17.290Z,94662.31
2022-10-31T15:42:47.428Z,94665.03
2022-10-31T15:45:18.150Z,94662.72
2022-10-31T15:48:04.543Z,94670.84
2022-10-31T15:50:39.820Z,94673.94
2022-10-31T15:53:26.220Z,94666.22
2022-10-31T15:56:01.412Z,94670.47
2022-10-31T15:58:54.182Z,94676.66
2022-10-31T16:01:39.815Z,94680.56
2022-10-31T16:04:15.420Z,94684.44
2022-10-31T16:06:45.069Z,94683.28
2022-10-31T16:09:33.006Z,94681.72
2022-10-31T16:12:05.364Z,94689.06
2022-10-31T16:14:46.523Z,94683.66
2022-10-31T16:17:22.159Z,94694.13
2022-10-31T16:20:00.092Z,94694.13
2022-10-31T16:22:34.732Z,94694.50
2022-10-31T16:25:23.064Z,94694.50
2022-10-31T16:27:54.564Z,94699.94
2022-10-31T16:30:36.711Z,94700.69
2022-10-31T16:33:04.429Z,94711.91
2022-10-31T16:35:48.424Z,94713.84
2022-10-31T16:38:22.063Z,94708.06
2022-10-31T16:40:52.034Z,94711.09
2022-10-31T16:43:21.300Z,94717.66
2022-10-31T16:45:55.125Z,94722.72
2022-10-31T16:48:31.255Z,94721.56
2022-10-31T16:51:04.569Z,94717.66
2022-10-31T16:53:36.061Z,94726.97
2022-10-31T16:56:04.912Z,94724.22
2022-10-31T16:58:43.009Z,94729.25
2022-10-31T17:01:22.068Z,94733.88
2022-10-31T17:03:55.455Z,94744.28
2022-10-31T17:09:02.759Z,94743.13
2022-10-31T17:11:29.481Z,94748.56
2022-10-31T17:14:01.034Z,94747.81
2022-10-31T17:17:21.031Z,94749.34
2022-10-31T17:25:30.171Z,94746.28
2022-10-31T17:28:01.670Z,94745.88
2022-10-31T17:30:28.692Z,94753.19
2022-10-31T17:33:00.968Z,94755.53
2022-10-31T17:35:38.927Z,94753.59
2022-10-31T17:38:05.684Z,94758.25
2022-10-31T17:40:32.532Z,94766.75
2022-10-31T17:43:06.436Z,94767.53
2022-10-31T17:45:35.868Z,94761.72
2022-10-31T17:48:06.521Z,94766.38
2022-10-31T17:50:40.356Z,94760.59
2022-10-31T17:53:07.103Z,94761.75
2022-10-31T17:55:37.205Z,94761.72
2022-10-31T18:00:54.951Z,94766.34
2022-10-31T18:03:24.894Z,94776.38
2022-10-31T18:06:43.707Z,94775.56
2022-10-31T18:09:32.735Z,94770.94
2022-10-31T18:12:00.201Z,94778.28
2022-10-31T18:14:40.422Z,94779.41
2022-10-31T18:17:14.775Z,94770.06
2022-10-31T18:19:55.493Z,94772.47
2022-10-31T18:22:23.880Z,94776.69
2022-10-31T18:25:02.100Z,94781.28
2022-10-31T18:27:29.433Z,94783.91
2022-10-31T18:32:42.885Z,94786.22
2022-10-31T18:35:17.534Z,94784.66
2022-10-31T18:37:44.270Z,94779.69
2022-10-31T18:40:18.328Z,94783.19
2022-10-31T18:42:44.936Z,94786.66
2022-10-31T18:45:31.280Z,94780.06
2022-10-31T18:48:08.408Z,94789.72
2022-10-31T18:50:41.268Z,94793.56
2022-10-31T18:53:16.978Z,94789.22
2022-10-31T18:55:47.267Z,94790.00
2022-10-31T18:58:25.971Z,94794.56
2022-10-31T19:00:52.884Z,94793.78
2022-10-31T19:03:25.745Z,94788.34
2022-10-31T19:05:57.802Z,94787.94
2022-10-31T19:08:33.077Z,94790.69
2022-10-31T19:11:15.452Z,94792.81
2022-10-31T19:13:46.505Z,94787.13
2022-10-31T19:16:17.205Z,94786.38
2022-10-31T19:18:48.399Z,94789.00
2022-10-31T19:21:27.878Z,94787.13
2022-10-31T19:24:02.302Z,94784.00
2022-10-31T19:26:38.518Z,94796.00
2022-10-31T19:29:11.074Z,94791.69
2022-10-31T19:31:37.826Z,94796.72
2022-10-31T19:34:05.488Z,94797.47
2022-10-31T19:36:43.373Z,94799.75
2022-10-31T19:39:13.564Z,94797.06
2022-10-31T19:41:54.202Z,94803.28
2022-10-31T19:44:28.039Z,94797.09
2022-10-31T19:46:54.653Z,94802.88
2022-10-31T19:49:21.823Z,94805.16
2022-10-31T19:51:48.438Z,94807.44
2022-10-31T19:54:20.026Z,94810.53
2022-10-31T19:56:46.735Z,94807.03
2022-10-31T19:59:18.668Z,94808.25
2022-10-31T20:01:46.172Z,94800.81
2022-10-31T20:04:12.961Z,94802.81
2022-10-31T20:06:43.765Z,94805.94
2022-10-31T20:09:23.547Z,94806.00
2022-10-31T20:14:32.205Z,94804.91
2022-10-31T20:19:45.982Z,94805.94
2022-10-31T20:22:17.847Z,94806.72
2022-10-31T20:24:44.510Z,94805.63
2022-10-31T20:27:18.026Z,94808.59
2022-10-31T20:29:44.615Z,94819.31
2022-10-31T20:32:11.269Z,94823.97
2022-10-31T20:34:45.274Z,94823.16
2022-10-31T20:37:11.973Z,94822.75
2022-10-31T20:39:41.874Z,94827.38
2022-10-31T20:42:19.427Z,94833.16
2022-10-31T20:45:00.509Z,94831.63
2022-10-31T20:47:40.689Z,94832.75
2022-10-31T20:50:16.624Z,94841.66
2022-10-31T20:53:01.297Z,94839.75
2022-10-31T20:55:30.495Z,94840.78
2022-10-31T20:57:57.666Z,94844.25
2022-10-31T21:00:39.164Z,94842.72
2022-10-31T21:03:07.286Z,94838.38
2022-10-31T21:05:40.820Z,94847.16
2022-10-31T21:08:13.000Z,94841.75
2022-10-31T21:10:46.267Z,94845.94
2022-10-31T21:13:12.898Z,94840.09
2022-10-31T21:15:41.531Z,94843.19
2022-10-31T21:18:10.939Z,94848.56
2022-10-31T21:20:44.807Z,94849.34
2022-10-31T21:23:13.808Z,94843.19
2022-10-31T21:25:47.639Z,94845.13
2022-10-31T21:28:25.478Z,94839.69
2022-10-31T21:30:59.342Z,94836.56
2022-10-31T21:36:07.417Z,94839.59
2022-10-31T21:38:47.326Z,94829.59
2022-10-31T21:44:06.313Z,94845.25
2022-10-31T21:46:33.624Z,94836.00
2022-10-31T21:51:49.816Z,94835.63
2022-10-31T21:54:40.306Z,94843.72
2022-10-31T21:57:11.476Z,94842.03
2022-10-31T21:59:44.617Z,94839.06
2022-10-31T22:02:21.033Z,94833.66
2022-10-31T22:04:58.684Z,94842.47
2022-10-31T22:07:25.329Z,94839.34
2022-10-31T22:09:58.302Z,94848.13
2022-10-31T22:12:24.962Z,94838.56
2022-10-31T22:15:00.708Z,94846.72
2022-10-31T22:17:33.747Z,94845.13
2022-10-31T22:22:40.966Z,94841.72
2022-10-31T22:25:17.683Z,94848.19
2022-10-31T22:27:52.737Z,94855.44
2022-10-31T22:30:19.787Z,94850.38
2022-10-31T22:32:57.287Z,94856.50
2022-10-31T22:35:25.106Z,94857.59
2022-10-31T22:38:07.799Z,94850.19
2022-10-31T22:40:36.462Z,94854.75
2022-10-31T22:43:13.388Z,94857.47
2022-10-31T22:45:46.907Z,94851.22
2022-10-31T22:48:13.854Z,94852.31
2022-10-31T22:50:48.308Z,94859.97
2022-10-31T22:53:21.800Z,94857.00
2022-10-31T22:55:52.766Z,94852.78
2022-10-31T23:01:07.068Z,94852.19
2022-10-31T23:03:35.118Z,94852.66
2022-10-31T23:06:03.407Z,94848.34
2022-10-31T23:08:31.570Z,94858.66
2022-10-31T23:11:05.585Z,94858.19
2022-10-31T23:13:56.485Z,94851.16
2022-10-31T23:16:29.347Z,94853.03
2022-10-31T23:18:59.309Z,94849.25
2022-10-31T23:21:52.197Z,94852.50
2022-10-31T23:24:22.652Z,94846.22
2022-10-31T23:27:18.396Z,94858.44
2022-10-31T23:29:49.981Z,94852.31
2022-10-31T23:32:37.245Z,94849.50
2022-10-31T23:35:09.894Z,94856.03
2022-10-31T23:37:46.249Z,94850.25
2022-10-31T23:40:19.633Z,94845.63
2022-10-31T23:42:55.008Z,94844.50
2022-10-31T23:45:23.653Z,94855.56
2022-10-31T23:47:50.276Z,94852.31
2022-10-31T23:50:23.154Z,94847.19
2022-10-31T23:53:03.258Z,94853.91
2022-10-31T23:55:31.373Z,94858.41
2022-10-31T23:58:03.212Z,94851.28
